• Join FlightAware (Why Join?)
  • Login
  • US Flag GB Flag 
06:03 EDT


 

Airport Tracker/Info


-or-


 

Live Flight TrackerFlight Track Log ✈ SWA407 ✈ 19-Apr-2013 ✈ KATL - KSFO

Flight Track Log - Related Links

Times and Time Zones

All times are in EDT time to prevent confusion due to time zone crossing. See the SWA407 flight status page for this flight to view local times or setup timezone preferences in your user account.

Time Position Orientation Groundspeed Altitude Reporting Facility
EDT Latitude Longitude Course Direction KTS MPH feet Rate Location/Type
17:58 33.6500 -84.4500 270° West 161 185 2,300  Level Atlanta TRACON
17:59 33.6500 -84.5167 270° West 213 245 4,500 2,100 Climbing Atlanta TRACON
18:00 33.6667 -84.5833 287° West 236 272 6,600 2,580 Climbing Atlanta TRACON
18:01 33.6833 -84.6667 284° West 239 275 9,700 1,920 Climbing Atlanta TRACON
18:03 33.7122 -84.8531 281° West 301 346 12,400 1,620 Climbing Atlanta Center
18:04 33.7303 -84.9606 281° West 329 379 14,700 2,460 Climbing Atlanta Center
18:05 33.7461 -85.0756 279° West 348 400 17,400 2,700 Climbing Atlanta Center
18:06 33.7636 -85.2008 280° West 353 406 20,100 2,160 Climbing Atlanta Center
18:07 33.7814 -85.3158 281° West 353 406 21,800 1,980 Climbing Atlanta Center
18:08 33.8050 -85.4389 283° West 364 419 24,100 1,980 Climbing Atlanta Center
18:09 33.8267 -85.5617 282° West 369 425 25,800 1,500 Climbing Atlanta Center
18:10 33.8522 -85.6872 284° West 382 440 27,100 1,260 Climbing Atlanta Center
18:11 33.8842 -85.7903 291° West 396 456 28,400 1,260 Climbing Atlanta Center
18:12 33.9281 -85.9264 291° West 401 461 29,700 780 Climbing Atlanta Center
18:13 33.9697 -86.0603 291° West 413 475 30,000 420 Climbing Atlanta Center
18:14 34.0092 -86.1914 290° West 418 481 30,600 720 Climbing Atlanta Center
18:15 34.0444 -86.3203 288° West 418 481 31,500 660 Climbing Atlanta Center
18:16 34.0797 -86.4464 289° West 408 470 32,000 780 Climbing Atlanta Center
18:17 34.1147 -86.5731 288° West 408 470 33,100 1,260 Climbing Atlanta Center
18:18 34.1292 -86.6261 288° West 404 465 33,800 1,260 Climbing Memphis Center
18:19 34.1619 -86.7475 288° West 399 459 34,900 960 Climbing Memphis Center
18:20 34.1967 -86.8717 289° West 399 459 35,800 540 Climbing Memphis Center
18:21 34.2361 -87.0108 289° West 397 457 36,000 60 Climbing Memphis Center
18:22 34.2683 -87.1300 288° West 386 444 36,000  Level Memphis Center
18:23 34.3025 -87.2419 290° West 386 444 36,000  Level Memphis Center
18:24 34.3372 -87.3764 287° West 386 444 36,000  Level Memphis Center
18:25 34.3714 -87.5011 288° West 386 444 36,000  Level Memphis Center
18:26 34.4056 -87.6233 289° West 386 444 36,000  Level Memphis Center
18:27 34.4394 -87.7456 289° West 386 444 36,000  Level Memphis Center
18:28 34.4711 -87.8681 287° West 376 433 36,000  Level Memphis Center
18:29 34.5028 -87.9881 288° West 376 433 36,000  Level Memphis Center
18:30 34.5364 -88.1108 288° West 381 438 36,000  Level Memphis Center
18:31 34.5678 -88.2386 287° West 387 445 36,000  Level Memphis Center
18:32 34.6011 -88.3639 288° West 392 451 36,000  Level Memphis Center
18:33 34.6322 -88.4842 287° West 392 451 36,000  Level Memphis Center
18:34 34.6589 -88.5872 287° West 370 426 36,000  Level Memphis Center
18:35 34.6917 -88.7078 288° West 376 433 36,000  Level Memphis Center
18:36 34.7247 -88.8333 288° West 381 438 36,000  Level Memphis Center
18:37 34.7572 -88.9542 288° West 381 438 36,000  Level Memphis Center
18:38 34.7881 -89.0800 287° West 376 433 36,000  Level Memphis Center
18:39 34.8183 -89.1986 287° West 376 433 36,000  Level Memphis Center
18:40 34.8486 -89.3169 287° West 376 433 36,000  Level Memphis Center
18:41 34.8831 -89.4483 288° West 376 433 36,000  Level Memphis Center
18:42 34.9150 -89.5669 288° West 370 426 36,000  Level Memphis Center
18:43 34.9386 -89.6681 286° West 375 432 36,000  Level Memphis Center
18:44 34.9664 -89.8022 284° West 375 432 36,000  Level Memphis Center
18:45 35.0044 -89.9286 290° West 388 447 36,000  Level Memphis Center
18:46 35.0403 -90.0528 289° West 388 447 36,000  Level Memphis Center
18:47 35.0803 -90.1844 290° West 388 447 36,000  Level Memphis Center
18:48 35.1200 -90.3089 291° West 389 448 36,000  Level Memphis Center
18:49 35.1575 -90.4308 291° West 389 448 36,000  Level Memphis Center
18:50 35.1969 -90.5553 291° West 389 448 36,000  Level Memphis Center
18:51 35.2344 -90.6722 291° West 389 448 36,000  Level Memphis Center
18:52 35.2736 -90.7997 291° West 389 448 36,000  Level Memphis Center
18:53 35.3106 -90.9244 290° West 389 448 36,000  Level Memphis Center
18:54 35.3497 -91.0469 291° West 389 448 36,000  Level Memphis Center
18:55 35.3844 -91.1567 291° West 389 448 36,000  Level Memphis Center
18:56 35.4253 -91.2972 290° West 394 453 36,000  Level Memphis Center
18:57 35.4556 -91.4072 289° West 395 455 36,000  Level Memphis Center
18:58 35.4964 -91.5275 293° West 388 447 36,000  Level Memphis Center
18:59 35.5347 -91.6556 290° West 393 452 36,000  Level Memphis Center
19:00 35.5728 -91.7814 290° West 393 452 36,000  Level Memphis Center
19:01 35.6111 -91.9069 291° West 393 452 36,000  Level Memphis Center
19:02 35.6469 -92.0356 289° West 393 452 36,000  Level Memphis Center
19:03 35.6847 -92.1589 291° West 393 452 36,000  Level Memphis Center
19:04 35.7206 -92.2850 289° West 393 452 36,000  Level Memphis Center
19:05 35.7581 -92.4114 290° West 393 452 36,000  Level Memphis Center
19:06 35.7936 -92.5350 290° West 388 447 36,000  Level Memphis Center
19:07 35.8311 -92.6564 291° West 388 447 36,000  Level Memphis Center
19:08 35.8661 -92.7803 289° West 388 447 36,000  Level Memphis Center
19:09 35.9014 -92.8992 290° West 388 447 36,000  Level Memphis Center
19:10 35.9364 -93.0206 290° West 388 447 36,000  Level Memphis Center
19:11 35.9711 -93.1425 289° West 388 447 36,000  Level Memphis Center
19:12 36.0039 -93.2667 288° West 388 447 36,000  Level Memphis Center
19:13 36.0406 -93.3861 291° West 388 447 36,000  Level Memphis Center
19:14 36.0731 -93.5106 288° West 388 447 36,000  Level Memphis Center
19:16 36.1475 -93.7703 290° West 387 445 36,000  Level Memphis Center
19:17 36.1819 -93.8825 291° West 387 445 36,000  Level Memphis Center
19:18 36.2175 -94.0203 288° West 387 445 36,000  Level Memphis Center
19:19 36.2533 -94.1453 290° West 387 445 36,000  Level Memphis Center
19:20 36.2931 -94.2733 291° West 392 451 36,000  Level Memphis Center
19:22 36.3872 -94.5608 292° West 385 443 36,000  Level Kansas City Center
19:23 36.4253 -94.6836 291° West 384 442 36,000  Level Kansas City Center
19:24 36.4647 -94.8072 292° West 384 442 36,000  Level Kansas City Center
19:25 36.5100 -94.9553 291° West 383 441 36,000  Level Kansas City Center
19:26 36.5481 -95.0797 291° West 386 444 36,000  Level Kansas City Center
19:27 36.5847 -95.1944 292° West 385 443 36,000  Level Kansas City Center
19:28 36.6247 -95.3272 291° West 388 447 36,000  Level Kansas City Center
19:29 36.6631 -95.4522 291° West 390 449 36,000  Level Kansas City Center
19:30 36.7094 -95.6044 291° West 394 453 36,000  Level Kansas City Center
19:31 36.7483 -95.7322 291° West 396 456 36,000  Level Kansas City Center
19:32 36.7875 -95.8589 291° West 395 455 36,000  Level Kansas City Center
19:33 36.8250 -95.9861 290° West 392 451 36,000  Level Kansas City Center
19:34 36.8561 -96.1158 287° West 391 450 36,000  Level Kansas City Center
19:35 36.8831 -96.2478 284° West 392 451 36,000  Level Kansas City Center
19:37 36.9106 -96.3783 285° West 389 448 36,000  Level Kansas City Center
19:38 36.9442 -96.5342 285° West 387 445 36,000  Level Kansas City Center
19:39 36.9719 -96.6636 285° West 386 444 36,000  Level Kansas City Center
19:40 36.9953 -96.7772 284° West 386 444 36,000  Level Kansas City Center
19:41 37.0225 -96.9069 285° West 385 443 36,000  Level Kansas City Center
19:42 37.0528 -97.0650 284° West 387 445 36,000  Level Kansas City Center
19:43 37.0786 -97.1972 284° West 389 448 36,000  Level Kansas City Center
19:44 37.1042 -97.3283 284° West 388 447 36,000  Level Kansas City Center
19:45 37.1306 -97.4572 284° West 385 443 36,000  Level Kansas City Center
19:46 37.1564 -97.5914 284° West 393 452 36,000  Level Kansas City Center
19:47 37.1828 -97.7239 284° West 392 451 36,000  Level Kansas City Center
19:48 37.2092 -97.8575 284° West 392 451 36,000  Level Kansas City Center
19:49 37.2350 -97.9919 284° West 394 453 36,000  Level Kansas City Center
19:50 37.2667 -98.1533 284° West 395 455 36,000  Level Kansas City Center
19:51 37.2931 -98.2886 284° West 396 456 36,000  Level Kansas City Center
19:52 37.3181 -98.4222 283° West 395 455 36,000  Level Kansas City Center
19:53 37.3439 -98.5556 284° West 393 452 36,000  Level Kansas City Center
19:54 37.3689 -98.6897 283° West 393 452 36,000  Level Kansas City Center
19:55 37.3936 -98.8219 283° West 391 450 36,000  Level Kansas City Center
19:56 37.4178 -98.9542 283° West 389 448 36,000  Level Kansas City Center
19:57 37.4422 -99.0853 283° West 388 447 36,000  Level Kansas City Center
19:58 37.4708 -99.2439 283° West 388 447 36,000  Level Kansas City Center
19:59 37.4942 -99.3767 283° West 388 447 36,000  Level Kansas City Center
20:00 37.5178 -99.5131 282° West 387 445 36,000  Level Kansas City Center
20:01 37.5403 -99.6397 283° West 387 445 36,000  Level Kansas City Center
20:02 37.5667 -99.7875 283° West 388 447 36,000  Level Kansas City Center
20:03 37.5900 -99.9136 283° West 388 447 36,000  Level Kansas City Center
20:04 37.6153 -100.0614 282° West 387 445 36,000  Level Kansas City Center
20:05 37.6369 -100.1875 282° West 386 444 36,000  Level Kansas City Center
20:06 37.6594 -100.3142 283° West 386 444 36,000  Level Kansas City Center
20:07 37.6850 -100.4642 282° West 391 450 36,000  Level Kansas City Center
20:08 37.7078 -100.5983 282° West 390 449 36,000  Level Kansas City Center
20:09 37.7306 -100.7308 282° West 387 445 36,000  Level Kansas City Center
20:10 37.7517 -100.8639 281° West 385 443 36,000  Level Kansas City Center
20:11 37.7756 -101.0044 282° West 379 436 36,000  Level Kansas City Center
20:13 37.7964 -101.1289 282° West 380 437 36,000  Level Kansas City Center
20:14 37.8200 -101.2744 282° West 380 437 36,000  Level Kansas City Center
20:15 37.8400 -101.3986 282° West 378 435 36,000  Level Kansas City Center
20:16 37.8636 -101.5447 282° West 380 437 36,000  Level Kansas City Center
20:17 37.8847 -101.6706 282° West 382 440 36,000  Level Kansas City Center
20:17 37.8972 -101.7553 281° West 382 440 36,000  Level Denver Center
20:18 37.9183 -101.8831 282° West 387 445 36,000  Level Denver Center
20:19 37.9417 -102.0308 281° West 385 443 36,000  Level Denver Center
20:20 37.9644 -102.1800 281° West 387 445 36,000  Level Denver Center
20:21 37.9883 -102.3286 282° West 386 444 36,000  Level Denver Center
20:23 38.0053 -102.4569 280° West 385 443 36,000  Level Denver Center
20:24 38.0261 -102.6047 280° West 382 440 36,000  Level Denver Center
20:25 38.0436 -102.7325 280° West 384 442 36,000  Level Denver Center
20:26 38.0625 -102.8789 279° West 377 434 36,000  Level Denver Center
20:27 38.0803 -103.0036 280° West 377 434 36,000  Level Denver Center
20:28 38.0986 -103.1481 279° West 382 440 36,000  Level Denver Center
20:29 38.1156 -103.2725 280° West 377 434 36,000  Level Denver Center
20:30 38.1283 -103.3781 279° West 380 437 36,000  Level Denver Center
20:31 38.1511 -103.5458 280° West 380 437 36,000  Level Denver Center
20:32 38.1697 -103.6919 279° West 377 434 36,000  Level Denver Center
20:33 38.1850 -103.8181 279° West 378 435 36,000  Level Denver Center
20:34 38.2042 -103.9631 280° West 376 433 36,000  Level Denver Center
20:35 38.2203 -104.0914 279° West 383 441 36,000  Level Denver Center
20:36 38.2350 -104.2200 278° West 385 443 36,000  Level Denver Center
20:37 38.2542 -104.3683 279° West 383 441 36,000  Level Denver Center
20:38 38.2747 -104.5403 279° West 386 444 36,000  Level Denver Center
20:39 38.2900 -104.6672 279° West 382 440 36,000  Level Denver Center
20:40 38.3083 -104.8161 279° West 383 441 36,000  Level Denver Center
20:41 38.3219 -104.9467 278° West 387 445 36,000  Level Denver Center
20:42 38.3381 -105.0739 279° West 383 441 36,000  Level Denver Center
20:43 38.3483 -105.2208 275° West 382 440 36,000  Level Denver Center
20:44 38.3578 -105.3589 275° West 385 443 36,000  Level Denver Center
20:45 38.3658 -105.4972 274° West 387 445 36,000  Level Denver Center
20:46 38.3750 -105.6344 275° West 387 445 36,000  Level Denver Center
20:47 38.3831 -105.7703 274° West 382 440 36,000  Level Denver Center
20:48 38.3911 -105.9172 274° West 382 440 36,000  Level Denver Center
20:49 38.3997 -106.0672 274° West 381 438 36,000  Level Denver Center
20:51 38.4078 -106.1997 274° West 378 435 36,000  Level Denver Center
20:52 38.4164 -106.3356 275° West 380 437 36,000  Level Denver Center
20:53 38.4225 -106.4750 273° West 389 448 36,000  Level Denver Center
20:54 38.4297 -106.6147 274° West 392 451 36,000  Level Denver Center
20:55 38.4369 -106.7522 274° West 388 447 36,000  Level Denver Center
20:56 38.4444 -106.8892 274° West 386 444 36,000  Level Denver Center
20:57 38.4511 -107.0258 274° West 383 441 36,000  Level Denver Center
20:58 38.4522 -107.1636 271° West 387 445 36,000  Level Denver Center
20:59 38.4533 -107.3144 271° West 390 449 36,000  Level Denver Center
21:00 38.4533 -107.4694 270° West 390 449 36,000  Level Denver Center
21:01 38.4533 -107.6025 270° West 392 451 36,000  Level Denver Center
21:02 38.4536 -107.7572 270° West 390 449 36,000  Level Denver Center
21:03 38.4544 -107.8889 271° West 388 447 36,000  Level Denver Center
21:04 38.4539 -108.0211 270° West 389 448 36,000  Level Denver Center
21:05 38.4528 -108.1731 270° West 385 443 36,000  Level Denver Center
21:06 38.4528 -108.3044 270° West 387 445 36,000  Level Denver Center
21:07 38.4519 -108.4578 270° West 387 445 36,000  Level Denver Center
21:08 38.4506 -108.5872 269° West 382 440 36,000  Level Denver Center
21:09 38.4500 -108.7397 270° West 385 443 36,000  Level Denver Center
21:10 38.4486 -108.8708 269° West 387 445 36,000  Level Denver Center
21:11 38.4472 -109.0008 269° West 384 442 36,000  Level Denver Center
21:12 38.4461 -109.1544 270° West 386 444 36,000  Level Denver Center
21:13 38.4433 -109.2825 268° West 381 438 36,000  Level Denver Center
21:14 38.4414 -109.4317 269° West 376 433 36,000  Level Denver Center
21:15 38.4400 -109.5600 269° West 377 434 36,000  Level Denver Center
21:16 38.4372 -109.7097 269° West 378 435 36,000  Level Denver Center
21:17 38.4344 -109.8389 268° West 380 437 36,000  Level Denver Center
21:18 38.4325 -109.9689 269° West 380 437 36,000  Level Denver Center
21:19 38.4294 -110.1189 269° West 379 436 36,000  Level Denver Center
21:20 38.4303 -110.1633 271° West 378 435 36,000  Level Salt Lake Center
21:21 38.4269 -110.3122 268° West 377 434 36,000  Level Salt Lake Center
21:21 38.4236 -110.3958 267° West 377 434 36,000  Level Denver Center
21:22 38.4217 -110.5000 269° West 370 426 36,000  Level Denver Center
21:23 38.4181 -110.6269 268° West 373 429 36,000  Level Denver Center
21:24 38.4175 -110.7131 270° West 372 428 36,000  Level Salt Lake Center
21:25 38.4164 -110.8386 269° West 371 427 36,000  Level Salt Lake Center
21:26 38.4142 -110.9889 269° West 368 423 36,000  Level Salt Lake Center
21:27 38.4119 -111.1194 269° West 369 425 36,000  Level Salt Lake Center
21:28 38.4089 -111.2514 268° West 372 428 36,000  Level Salt Lake Center
21:29 38.4075 -111.3819 269° West 371 427 36,000  Level Salt Lake Center
21:30 38.4039 -111.5125 268° West 371 427 36,000  Level Salt Lake Center
21:31 38.4014 -111.6447 269° West 373 429 36,000  Level Salt Lake Center
21:32 38.3983 -111.7767 268° West 374 430 36,000  Level Salt Lake Center
21:33 38.3944 -111.9081 268° West 374 430 36,000  Level Salt Lake Center
21:34 38.3917 -112.0611 269° West 364 419 36,000  Level Salt Lake Center
21:35 38.3872 -112.1881 267° West 361 415 36,000  Level Salt Lake Center
21:36 38.3836 -112.3147 268° West 360 414 36,000  Level Salt Lake Center
21:37 38.3797 -112.4414 268° West 359 413 36,000  Level Salt Lake Center
21:38 38.3756 -112.5697 268° West 363 418 36,000  Level Salt Lake Center
21:39 38.3717 -112.6986 268° West 366 421 36,000  Level Salt Lake Center
21:40 38.3675 -112.8264 268° West 364 419 36,000  Level Salt Lake Center
21:41 38.3631 -112.9536 267° West 363 418 36,000  Level Salt Lake Center
21:42 38.3542 -113.1067 266° West 363 418 36,000  Level Salt Lake Center
21:43 38.3442 -113.2350 264° West 367 422 36,000  Level Salt Lake Center
21:44 38.3350 -113.3647 265° West 369 425 36,000  Level Salt Lake Center
21:45 38.3244 -113.4903 264° West 363 418 36,000  Level Salt Lake Center
21:46 38.3147 -113.6181 265° West 364 419 36,000  Level Salt Lake Center
21:47 38.3042 -113.7450 264° West 363 418 36,000  Level Salt Lake Center
21:48 38.2947 -113.8708 265° West 360 414 36,000  Level Salt Lake Center
21:49 38.2825 -114.0231 264° West 362 417 36,000  Level Salt Lake Center
21:50 38.2717 -114.1489 264° West 361 415 36,000  Level Salt Lake Center
21:51 38.2597 -114.2758 263° West 362 417 36,000  Level Salt Lake Center
21:53 38.2492 -114.4047 264° West 366 421 36,000  Level Salt Lake Center
21:54 38.2453 -114.5292 268° West 358 412 36,000  Level Salt Lake Center
21:55 38.2403 -114.6517 267° West 351 404 36,000  Level Salt Lake Center
21:56 38.2364 -114.7767 268° West 353 406 36,000  Level Salt Lake Center
21:57 38.2300 -114.9256 267° West 351 404 36,000  Level Salt Lake Center
21:58 38.2264 -115.0475 268° West 348 400 36,000  Level Salt Lake Center
21:59 38.2208 -115.1686 267° West 345 397 36,000  Level Salt Lake Center
22:00 38.2161 -115.2897 267° West 344 396 36,000  Level Salt Lake Center
22:01 38.2100 -115.4256 267° West 350 403 36,000  Level Salt Lake Center
22:02 38.2058 -115.5508 268° West 355 409 36,000  Level Salt Lake Center
22:03 38.1997 -115.6767 267° West 355 409 36,000  Level Salt Lake Center
22:04 38.1942 -115.7997 267° West 351 404 36,000  Level Salt Lake Center
22:05 38.1883 -115.9211 267° West 345 397 36,000  Level Salt Lake Center
22:06 38.1828 -116.0444 267° West 347 399 36,000  Level Salt Lake Center
22:07 38.1772 -116.1669 267° West 347 399 36,000  Level Salt Lake Center
22:08 38.1714 -116.2908 267° West 350 403 36,000  Level Salt Lake Center
22:09 38.1639 -116.4375 266° West 347 399 36,000  Level Salt Lake Center
22:10 38.1597 -116.5364 267° West 350 403 36,000  Level Oakland Center
22:11 38.1525 -116.6603 266° West 349 402 36,000  Level Oakland Center
22:12 38.1467 -116.7850 267° West 354 407 36,000  Level Oakland Center
22:13 38.1397 -116.9092 266° West 353 406 36,000  Level Oakland Center
22:14 38.1331 -117.0361 266° West 357 411 36,000  Level Oakland Center
22:15 38.1256 -117.1722 266° West 357 411 36,000  Level Oakland Center
22:16 38.1142 -117.2969 263° West 356 410 36,000  Level Oakland Center
22:17 38.0847 -117.4172 253° West 356 410 36,000  Level Oakland Center
22:18 38.0567 -117.5383 254° West 357 411 36,000  Level Oakland Center
22:19 38.0281 -117.6606 253° West 359 413 36,000  Level Oakland Center
22:20 37.9997 -117.7844 254° West 364 419 36,000  Level Oakland Center
22:21 37.9875 -117.9097 263° West 358 412 36,000  Level Oakland Center
22:22 37.9739 -118.0361 262° West 360 414 36,000  Level Oakland Center
22:23 37.9606 -118.1636 262° West 364 419 36,000  Level Oakland Center
22:24 37.9464 -118.2922 262° West 367 422 36,000  Level Oakland Center
22:25 37.9333 -118.4208 263° West 368 423 36,000  Level Oakland Center
22:26 37.9169 -118.5742 262° West 365 420 36,000  Level Oakland Center
22:27 37.9019 -118.7014 262° West 365 420 36,000  Level Oakland Center
22:28 37.8883 -118.8314 262° West 369 425 36,000  Level Oakland Center
22:29 37.8739 -118.9622 262° West 374 430 36,000  Level Oakland Center
22:30 37.8581 -119.0872 261° West 371 427 36,000  Level Oakland Center
22:31 37.8442 -119.2158 262° West 370 426 36,000  Level Oakland Center
22:32 37.8283 -119.3453 261° West 372 428 36,000  Level Oakland Center
22:33 37.8125 -119.4767 261° West 376 433 36,000  Level Oakland Center
22:34 37.7983 -119.6061 262° West 375 432 36,000 -300 Level Oakland Center
22:35 37.7817 -119.7367 261° West 377 434 35,400 -840 Descending Oakland Center
22:36 37.7656 -119.8686 261° West 382 440 34,400 -1,020 Descending Oakland Center
22:37 37.7494 -119.9994 261° West 380 437 33,400 -1,080 Descending Oakland Center
22:38 37.7297 -120.1614 261° West 388 447 32,300 -1,020 Descending Oakland Center
22:39 37.7122 -120.2967 261° West 389 448 31,400 -960 Descending Oakland Center
22:40 37.6953 -120.4369 261° West 397 457 30,400 -1,020 Descending Oakland Center
22:41 37.6772 -120.5758 261° West 399 459 29,400 -1,740 Descending Oakland Center
22:42 37.6667 -120.6833 263° West 398 458 27,400 -3,120 Descending Northern Cal TRACON
22:43 37.6500 -120.8167 261° West 409 471 24,000 -3,000 Descending Northern Cal TRACON
22:44 37.6333 -120.9667 262° West 392 451 21,400 -2,880 Descending Northern Cal TRACON
22:45 37.6167 -121.0833 260° West 391 450 18,300 -2,880 Descending Northern Cal TRACON
22:46 37.6000 -121.2000 260° West 384 442 16,000 -2,460 Descending Northern Cal TRACON
22:47 37.5833 -121.3333 261° West 358 412 13,700 -2,100 Descending Northern Cal TRACON
22:48 37.5667 -121.4500 260° West 341 392 11,800 -1,320 Descending Northern Cal TRACON
22:49 37.5667 -121.5500 270° West 301 346 11,300 -480 Descending Northern Cal TRACON
22:50 37.5500 -121.6500 258° West 276 318 10,900 -900 Descending Northern Cal TRACON
22:51 37.5167 -121.7500 247° West 268 308 9,500 -1,140 Descending Northern Cal TRACON
22:52 37.5000 -121.8167 253° West 250 288 8,700 -900 Descending Northern Cal TRACON
22:53 37.4833 -121.9000 256° West 233 268 7,700 -1,200 Descending Northern Cal TRACON
22:54 37.5000 -121.9833 284° West 227 261 6,400 -1,260 Descending Northern Cal TRACON
22:55 37.5167 -122.0500 288° West 212 244 5,200 -1,200 Descending Northern Cal TRACON
22:56 37.5333 -122.1167 288° West 195 224 4,100 -1,020 Descending Northern Cal TRACON
22:57 37.5497 -122.1456 306° West 201 231 3,600 -900 Descending Oakland Center
22:58 37.5667 -122.2039 290° West 190 219 2,600 -960 Descending Oakland Center
22:59 37.5817 -122.2572 290° West 176 203 1,700 -840 Descending Oakland Center
23:00 37.5886 -122.3031 281° West 150 173 1,000 -780 Descending Oakland Center
23:01 37.6078 -122.3486 298° West 132 152 200 -840 Descending Oakland Center
23:03 37.6167 -122.3667 322° Northwest  Level FlightAware Approximate